Time;durP1;ratioP1;P1;durP2;ratioP2;P2;SDS_P1;SDS_P2;PMS_P1;PMS_P2;Temp;Humidity;BMP_temperature;BMP_pressure;BME280_temperature;BME280_humidity;BME280_pressure;Samples;Min_cycle;Max_cycle;Signal;HPM_P1;HPM_P2
2021/06/20 00:00:55;;;;;;;;;;;18.50;90.00;;;;;;5009964;28;19909;-67
2021/06/20 00:03:21;;;;;;;;;;;18.60;90.00;;;;;;5009935;28;19925;-67
2021/06/20 00:05:56;;;;;;;;;;;18.60;90.60;;;;;;5006540;28;20252;-67
2021/06/20 00:08:22;;;;;;;;;;;18.80;91.00;;;;;;5012557;28;20209;-68
2021/06/20 00:10:51;;;;;;;;;;;18.90;91.00;;;;;;5013907;28;20166;-65
2021/06/20 00:13:17;;;;;;;;;;;19.00;91.30;;;;;;5014406;28;20378;-66
2021/06/20 00:15:42;;;;;;;;;;;19.10;91.40;;;;;;5007796;28;20340;-66
2021/06/20 00:18:08;;;;;;;;;;;19.20;91.20;;;;;;5011887;28;20027;-66
2021/06/20 00:20:38;;;;;;;;;;;19.30;90.90;;;;;;5005621;28;20464;-65
2021/06/20 00:23:04;;;;;;;;;;;19.40;90.70;;;;;;5010347;28;19917;-66
2021/06/20 00:25:30;;;;;;;;;;;19.40;90.80;;;;;;5007308;28;20062;-66
2021/06/20 00:27:55;;;;;;;;;;;19.50;90.80;;;;;;5011238;28;20019;-66
2021/06/20 00:30:22;;;;;;;;;;;19.50;90.80;;;;;;5008604;28;20246;-65
2021/06/20 00:32:49;;;;;;;;;;;19.60;90.40;;;;;;5015361;28;19952;-67
2021/06/20 00:35:15;;;;;;;;;;;19.70;90.40;;;;;;5006357;28;20650;-67
2021/06/20 00:37:41;;;;;;;;;;;19.70;90.30;;;;;;5012696;28;20004;-66
2021/06/20 00:40:07;;;;;;;;;;;19.70;90.20;;;;;;5008431;28;20179;-67
2021/06/20 00:42:33;;;;;;;;;;;19.80;90.20;;;;;;5010656;28;19955;-66
2021/06/20 00:44:58;;;;;;;;;;;19.90;90.00;;;;;;5007754;28;19963;-67
2021/06/20 00:47:24;;;;;;;;;;;19.90;89.90;;;;;;5012429;28;19921;-67
2021/06/20 00:49:49;;;;;;;;;;;20.00;89.60;;;;;;5009484;28;19913;-67
2021/06/20 00:52:17;;;;;;;;;;;20.00;89.30;;;;;;5019868;28;19978;-67
2021/06/20 00:54:47;;;;;;;;;;;20.00;89.40;;;;;;5002667;28;19996;-67
2021/06/20 00:57:17;;;;;;;;;;;20.00;89.40;;;;;;5005675;28;19924;-67
2021/06/20 00:59:43;;;;;;;;;;;20.00;89.20;;;;;;5003059;28;19913;-67
2021/06/20 01:02:10;;;;;;;;;;;20.00;89.20;;;;;;5014730;28;20268;-67
2021/06/20 01:04:36;;;;;;;;;;;20.10;89.20;;;;;;5020922;28;20004;-67
2021/06/20 01:07:02;;;;;;;;;;;20.10;89.10;;;;;;5020102;28;20408;-66
2021/06/20 01:09:27;;;;;;;;;;;20.10;89.10;;;;;;5021315;28;19974;-67
2021/06/20 01:11:53;;;;;;;;;;;20.10;88.90;;;;;;5020267;28;19963;-66
2021/06/20 01:14:18;;;;;;;;;;;20.10;88.90;;;;;;5021643;28;19974;-66
2021/06/20 01:16:44;;;;;;;;;;;20.10;88.90;;;;;;5019564;28;19968;-67
2021/06/20 01:19:09;;;;;;;;;;;20.10;88.80;;;;;;5019406;28;19921;-65
2021/06/20 01:21:35;;;;;;;;;;;20.20;88.80;;;;;;5019042;28;19933;-66
2021/06/20 01:24:01;;;;;;;;;;;20.20;88.60;;;;;;5018280;28;21152;-66
2021/06/20 01:26:26;;;;;;;;;;;20.30;88.60;;;;;;5033078;28;19921;-67
2021/06/20 01:29:02;;;;;;;;;;;20.30;88.40;;;;;;5019424;28;20335;-66
2021/06/20 01:31:30;;;;;;;;;;;20.30;88.30;;;;;;5019339;28;20005;-67
2021/06/20 01:33:56;;;;;;;;;;;20.30;88.20;;;;;;5018773;28;20069;-68
2021/06/20 01:36:22;;;;;;;;;;;20.30;88.20;;;;;;5036123;28;19996;-66
2021/06/20 01:38:47;;;;;;;;;;;20.30;88.20;;;;;;5018914;28;19928;-67
2021/06/20 01:41:13;;;;;;;;;;;20.30;88.20;;;;;;5021365;28;19916;-65
2021/06/20 01:43:38;;;;;;;;;;;20.30;88.20;;;;;;5017607;28;19939;-67
2021/06/20 01:46:04;;;;;;;;;;;20.30;88.20;;;;;;5021181;28;19939;-67
2021/06/20 01:48:30;;;;;;;;;;;20.30;88.10;;;;;;5017124;28;20063;-67
2021/06/20 01:50:55;;;;;;;;;;;20.30;88.00;;;;;;5020287;28;19949;-66
2021/06/20 01:53:21;;;;;;;;;;;20.30;87.90;;;;;;5019463;28;19917;-66
2021/06/20 01:55:46;;;;;;;;;;;20.30;87.90;;;;;;5018783;28;19928;-67
2021/06/20 01:58:13;;;;;;;;;;;20.30;88.00;;;;;;5018863;28;19956;-67
2021/06/20 02:00:40;;;;;;;;;;;20.30;87.80;;;;;;5017691;28;20028;-66
2021/06/20 02:03:06;;;;;;;;;;;20.40;87.70;;;;;;5019657;28;20253;-67
2021/06/20 02:05:32;;;;;;;;;;;20.40;87.70;;;;;;5020610;28;19913;-67
2021/06/20 02:07:58;;;;;;;;;;;20.30;87.60;;;;;;5018683;28;19986;-67
2021/06/20 02:10:23;;;;;;;;;;;20.40;87.60;;;;;;5020648;28;19909;-68
2021/06/20 02:12:49;;;;;;;;;;;20.40;87.60;;;;;;5019574;28;20000;-66
2021/06/20 02:15:16;;;;;;;;;;;20.50;87.50;;;;;;5021004;28;19909;-67
2021/06/20 02:17:41;;;;;;;;;;;20.50;87.40;;;;;;5022558;28;20259;-67
2021/06/20 02:20:09;;;;;;;;;;;20.50;87.20;;;;;;5022825;28;19988;-68
2021/06/20 02:22:35;;;;;;;;;;;20.50;87.20;;;;;;5021161;28;19943;-67
2021/06/20 02:25:00;;;;;;;;;;;20.50;87.30;;;;;;5024306;28;20359;-67
2021/06/20 02:27:26;;;;;;;;;;;20.50;87.40;;;;;;5022965;28;19979;-67
2021/06/20 02:29:53;;;;;;;;;;;20.60;87.40;;;;;;5024715;28;19960;-65
2021/06/20 02:32:19;;;;;;;;;;;20.60;87.50;;;;;;5023940;28;19910;-67
2021/06/20 02:34:45;;;;;;;;;;;20.60;87.30;;;;;;5025388;28;19909;-66
2021/06/20 02:37:11;;;;;;;;;;;20.60;87.40;;;;;;5022552;28;19983;-65
2021/06/20 02:39:37;;;;;;;;;;;20.60;87.40;;;;;;5024279;28;20375;-67
2021/06/20 02:42:03;;;;;;;;;;;20.70;87.40;;;;;;5024317;28;20391;-66
2021/06/20 02:44:28;;;;;;;;;;;20.70;87.50;;;;;;5023267;28;19970;-67
2021/06/20 02:46:57;;;;;;;;;;;20.70;87.40;;;;;;5025544;28;19936;-66
2021/06/20 02:49:22;;;;;;;;;;;20.80;87.50;;;;;;5021755;28;19999;-67
2021/06/20 02:51:48;;;;;;;;;;;20.80;87.40;;;;;;5023534;28;20000;-67
2021/06/20 02:54:13;;;;;;;;;;;20.80;87.40;;;;;;5020449;28;20307;-67
2021/06/20 02:56:39;;;;;;;;;;;20.80;87.50;;;;;;5021193;28;19920;-67
2021/06/20 02:59:05;;;;;;;;;;;20.80;87.30;;;;;;5022290;28;19929;-67
2021/06/20 03:01:31;;;;;;;;;;;20.80;87.10;;;;;;5022381;28;19932;-67
2021/06/20 03:03:56;;;;;;;;;;;20.90;87.30;;;;;;5020512;28;20010;-67
2021/06/20 03:06:22;;;;;;;;;;;20.90;87.10;;;;;;5023926;28;20313;-67
2021/06/20 03:08:47;;;;;;;;;;;20.90;87.10;;;;;;5021793;28;19913;-66
2021/06/20 03:11:13;;;;;;;;;;;20.80;87.00;;;;;;5024055;28;19913;-67
2021/06/20 03:13:39;;;;;;;;;;;20.90;87.00;;;;;;5022280;28;19924;-67
2021/06/20 03:16:04;;;;;;;;;;;20.90;86.90;;;;;;5022874;28;19928;-67
2021/06/20 03:18:31;;;;;;;;;;;20.90;86.90;;;;;;5022419;28;20420;-68
2021/06/20 03:20:56;;;;;;;;;;;20.90;86.80;;;;;;5022041;28;20168;-66
2021/06/20 03:23:22;;;;;;;;;;;21.00;86.70;;;;;;5038671;28;20376;-66
2021/06/20 03:25:47;;;;;;;;;;;21.00;86.70;;;;;;5019950;28;19978;-66
2021/06/20 03:28:13;;;;;;;;;;;21.10;86.60;;;;;;5021540;28;20288;-65
2021/06/20 03:30:38;;;;;;;;;;;21.10;86.40;;;;;;5023957;28;19917;-67
2021/06/20 03:33:04;;;;;;;;;;;21.20;86.20;;;;;;5022498;28;19917;-67
2021/06/20 03:35:30;;;;;;;;;;;21.30;86.50;;;;;;5024050;28;20268;-67
2021/06/20 03:37:55;;;;;;;;;;;21.20;86.60;;;;;;5022193;28;19924;-66
2021/06/20 03:40:21;;;;;;;;;;;21.20;86.90;;;;;;5023215;28;20218;-67
2021/06/20 03:42:47;;;;;;;;;;;21.30;87.00;;;;;;5018279;28;19917;-67
2021/06/20 03:45:13;;;;;;;;;;;21.30;87.20;;;;;;5023372;28;19946;-66
2021/06/20 03:47:39;;;;;;;;;;;21.30;87.70;;;;;;5022260;28;19959;-66
2021/06/20 03:50:06;;;;;;;;;;;21.20;87.90;;;;;;5022040;28;19913;-67
2021/06/20 03:52:31;;;;;;;;;;;21.10;88.90;;;;;;5020670;28;20378;-66
2021/06/20 03:54:57;;;;;;;;;;;21.10;89.80;;;;;;5021896;28;19990;-66
2021/06/20 03:57:23;;;;;;;;;;;21.00;90.10;;;;;;5020590;28;19921;-66
2021/06/20 03:59:49;;;;;;;;;;;20.90;91.00;;;;;;5023367;28;19915;-67
2021/06/20 04:02:14;;;;;;;;;;;20.70;92.10;;;;;;5023373;28;19913;-68
2021/06/20 04:04:41;;;;;;;;;;;20.70;92.50;;;;;;5023349;28;20362;-67
2021/06/20 04:07:08;;;;;;;;;;;20.60;92.80;;;;;;5022015;28;20359;-68
2021/06/20 04:09:33;;;;;;;;;;;20.50;92.60;;;;;;5023003;28;20332;-68
2021/06/20 04:11:59;;;;;;;;;;;20.30;92.70;;;;;;5020981;28;19913;-68
2021/06/20 04:14:24;;;;;;;;;;;20.20;93.50;;;;;;5021742;28;20087;-69
2021/06/20 04:16:50;;;;;;;;;;;20.00;94.30;;;;;;5022126;28;20346;-69
2021/06/20 04:19:15;;;;;;;;;;;20.00;94.40;;;;;;5019081;28;19995;-69
2021/06/20 04:21:41;;;;;;;;;;;19.90;94.70;;;;;;5016611;28;19925;-63
2021/06/20 04:24:06;;;;;;;;;;;19.70;94.60;;;;;;5023552;28;20260;-63
2021/06/20 04:26:32;;;;;;;;;;;19.60;94.90;;;;;;5020042;28;20323;-62
2021/06/20 04:28:57;;;;;;;;;;;19.60;94.70;;;;;;5022740;28;20401;-62
2021/06/20 04:31:23;;;;;;;;;;;19.60;95.00;;;;;;5020444;28;20970;-63
2021/06/20 04:33:48;;;;;;;;;;;19.50;95.20;;;;;;5022038;28;19923;-62
2021/06/20 04:36:14;;;;;;;;;;;19.50;95.50;;;;;;5020486;28;19968;-62
2021/06/20 04:38:40;;;;;;;;;;;19.40;95.60;;;;;;5020727;28;20364;-62
2021/06/20 04:41:07;;;;;;;;;;;19.40;95.50;;;;;;5020474;28;19965;-62
2021/06/20 04:46:09;;;;;;;;;;;19.20;95.30;;;;;;5022721;28;19909;-62
2021/06/20 04:48:35;;;;;;;;;;;19.20;95.30;;;;;;5021066;28;20363;-62
2021/06/20 04:51:00;;;;;;;;;;;19.10;95.60;;;;;;5022628;28;19909;-62
2021/06/20 04:53:26;;;;;;;;;;;19.10;95.80;;;;;;5019975;28;19956;-63
2021/06/20 04:55:51;;;;;;;;;;;19.10;96.10;;;;;;5020924;28;19962;-63
2021/06/20 04:58:17;;;;;;;;;;;19.00;96.20;;;;;;5017112;28;19920;-63
2021/06/20 05:00:42;;;;;;;;;;;19.00;96.30;;;;;;5021659;28;20383;-63
2021/06/20 05:03:08;;;;;;;;;;;18.90;96.30;;;;;;5021030;28;20033;-63
2021/06/20 05:05:33;;;;;;;;;;;19.00;96.50;;;;;;5019209;28;19924;-63
2021/06/20 05:08:00;;;;;;;;;;;18.90;96.50;;;;;;5019637;28;19963;-63
2021/06/20 05:10:26;;;;;;;;;;;18.90;96.60;;;;;;5019893;28;20058;-62
2021/06/20 05:12:55;;;;;;;;;;;18.90;96.60;;;;;;5020026;28;20012;-63
2021/06/20 05:15:20;;;;;;;;;;;18.90;96.60;;;;;;5020693;28;20028;-62
2021/06/20 05:17:45;;;;;;;;;;;18.90;96.80;;;;;;5021603;28;20028;-62
2021/06/20 05:20:11;;;;;;;;;;;18.80;96.80;;;;;;5022071;28;20381;-63
2021/06/20 05:22:37;;;;;;;;;;;18.80;96.80;;;;;;5017554;28;19925;-64
2021/06/20 05:25:03;;;;;;;;;;;18.80;96.90;;;;;;5022350;28;19913;-62
2021/06/20 05:27:29;;;;;;;;;;;18.80;97.00;;;;;;5018087;28;20019;-63
2021/06/20 05:29:54;;;;;;;;;;;18.80;97.00;;;;;;5020140;28;19995;-63
2021/06/20 05:32:20;;;;;;;;;;;18.80;96.80;;;;;;5020446;28;19921;-64
2021/06/20 05:34:45;;;;;;;;;;;18.70;96.80;;;;;;5021425;28;20100;-63
2021/06/20 05:37:11;;;;;;;;;;;18.70;96.90;;;;;;5018484;28;20004;-63
2021/06/20 05:39:36;;;;;;;;;;;18.70;96.80;;;;;;5021156;28;19956;-63
2021/06/20 05:42:02;;;;;;;;;;;18.70;97.10;;;;;;5014229;28;20067;-63
2021/06/20 05:44:27;;;;;;;;;;;18.70;97.10;;;;;;5019509;28;20100;-64
2021/06/20 05:46:53;;;;;;;;;;;18.70;97.10;;;;;;5021328;28;19913;-63
2021/06/20 05:49:18;;;;;;;;;;;18.70;97.10;;;;;;5021536;28;19913;-63
2021/06/20 05:51:44;;;;;;;;;;;18.70;97.00;;;;;;5021925;28;19940;-63
2021/06/20 05:54:09;;;;;;;;;;;18.70;96.90;;;;;;5026822;28;19917;-62
2021/06/20 05:56:35;;;;;;;;;;;18.60;96.70;;;;;;5022772;28;20152;-63
2021/06/20 05:59:01;;;;;;;;;;;18.70;96.60;;;;;;5025753;28;19913;-63
2021/06/20 06:01:26;;;;;;;;;;;18.60;96.50;;;;;;5026110;28;19948;-62
2021/06/20 06:03:52;;;;;;;;;;;18.70;96.50;;;;;;5025276;28;20020;-63
2021/06/20 06:06:17;;;;;;;;;;;18.70;96.60;;;;;;5026743;28;19969;-64
2021/06/20 06:08:42;;;;;;;;;;;18.70;96.60;;;;;;5024486;28;19920;-64
2021/06/20 06:11:08;;;;;;;;;;;18.70;96.70;;;;;;5025776;28;19975;-63
2021/06/20 06:13:34;;;;;;;;;;;18.70;96.70;;;;;;5024630;28;19970;-62
2021/06/20 06:15:59;;;;;;;;;;;18.80;96.80;;;;;;5024655;28;20023;-63
2021/06/20 06:18:25;;;;;;;;;;;18.80;96.80;;;;;;5023111;28;19989;-63
2021/06/20 06:20:50;;;;;;;;;;;18.80;96.90;;;;;;5021801;28;20018;-63
2021/06/20 06:23:16;;;;;;;;;;;18.90;97.00;;;;;;5023004;28;19928;-63
2021/06/20 06:25:41;;;;;;;;;;;19.00;96.80;;;;;;5024591;28;20045;-62
2021/06/20 06:28:07;;;;;;;;;;;19.00;96.70;;;;;;5021378;28;20159;-62
2021/06/20 06:30:32;;;;;;;;;;;19.20;96.80;;;;;;5026114;28;19953;-63
2021/06/20 06:32:58;;;;;;;;;;;19.30;96.20;;;;;;5022327;28;20232;-63
2021/06/20 06:35:23;;;;;;;;;;;19.30;96.00;;;;;;5024252;28;20001;-62
2021/06/20 06:37:50;;;;;;;;;;;19.40;96.00;;;;;;5023522;28;20012;-63
2021/06/20 06:40:16;;;;;;;;;;;19.50;96.10;;;;;;5022551;28;19913;-62
2021/06/20 06:42:41;;;;;;;;;;;19.60;95.90;;;;;;5023082;28;20336;-63
2021/06/20 06:45:08;;;;;;;;;;;19.50;95.80;;;;;;5025505;28;20056;-64
2021/06/20 06:47:36;;;;;;;;;;;19.70;95.70;;;;;;5022464;28;20376;-64
2021/06/20 06:50:05;;;;;;;;;;;19.90;96.00;;;;;;5024802;28;19913;-63
2021/06/20 06:52:31;;;;;;;;;;;20.10;96.00;;;;;;5022317;28;20144;-63
2021/06/20 06:54:56;;;;;;;;;;;20.10;94.90;;;;;;5021990;28;20535;-63
2021/06/20 06:57:22;;;;;;;;;;;20.10;94.70;;;;;;5020470;28;20431;-63
2021/06/20 06:59:50;;;;;;;;;;;20.40;95.60;;;;;;5024331;28;19936;-63
2021/06/20 07:02:16;;;;;;;;;;;20.30;95.00;;;;;;5023642;28;20355;-63
2021/06/20 07:04:42;;;;;;;;;;;20.20;95.10;;;;;;5023437;28;19921;-63
2021/06/20 07:07:07;;;;;;;;;;;20.20;95.00;;;;;;5022446;28;19939;-63
2021/06/20 07:09:33;;;;;;;;;;;20.20;94.60;;;;;;5023890;28;19935;-64
2021/06/20 07:11:59;;;;;;;;;;;20.50;95.20;;;;;;5022125;28;20080;-63
2021/06/20 07:14:24;;;;;;;;;;;20.40;94.90;;;;;;5023993;28;19913;-63
2021/06/20 07:16:50;;;;;;;;;;;20.50;94.20;;;;;;5022692;28;20395;-63
2021/06/20 07:19:15;;;;;;;;;;;20.60;94.40;;;;;;5023439;28;19921;-63
2021/06/20 07:21:41;;;;;;;;;;;20.80;94.10;;;;;;5021563;28;19921;-63
2021/06/20 07:24:07;;;;;;;;;;;21.00;93.70;;;;;;5022439;28;20186;-64
2021/06/20 07:26:32;;;;;;;;;;;21.10;93.60;;;;;;5021601;28;20384;-64
2021/06/20 07:28:58;;;;;;;;;;;21.20;92.40;;;;;;5020679;28;19958;-63
2021/06/20 07:31:24;;;;;;;;;;;21.50;93.00;;;;;;5024125;28;20267;-64
2021/06/20 07:33:49;;;;;;;;;;;21.80;93.40;;;;;;5022128;28;20019;-64
2021/06/20 07:36:15;;;;;;;;;;;22.00;92.60;;;;;;5024566;28;19940;-64
2021/06/20 07:38:44;;;;;;;;;;;22.00;91.50;;;;;;5022572;28;19956;-64
2021/06/20 07:41:10;;;;;;;;;;;22.00;90.00;;;;;;5023266;28;19917;-64
2021/06/20 07:43:35;;;;;;;;;;;22.20;92.00;;;;;;5019636;28;19956;-63
2021/06/20 07:46:01;;;;;;;;;;;22.10;90.00;;;;;;5023415;28;20011;-63
2021/06/20 07:48:28;;;;;;;;;;;22.40;90.60;;;;;;5021848;28;19920;-64
2021/06/20 07:50:54;;;;;;;;;;;22.50;89.20;;;;;;5024281;28;20229;-64
2021/06/20 07:53:19;;;;;;;;;;;22.60;87.70;;;;;;5020592;28;19971;-64
2021/06/20 07:55:45;;;;;;;;;;;22.60;88.50;;;;;;5022882;28;20225;-63
2021/06/20 07:58:10;;;;;;;;;;;22.40;88.40;;;;;;5019024;28;19921;-64
2021/06/20 08:00:36;;;;;;;;;;;22.20;88.70;;;;;;5023086;28;19954;-63
2021/06/20 08:03:01;;;;;;;;;;;22.10;88.60;;;;;;5022579;28;19970;-63
2021/06/20 08:05:27;;;;;;;;;;;22.00;87.80;;;;;;5023745;28;20394;-64
2021/06/20 08:07:52;;;;;;;;;;;22.00;87.20;;;;;;5021984;28;19935;-63
2021/06/20 08:10:18;;;;;;;;;;;22.00;87.10;;;;;;5019515;28;20278;-63
2021/06/20 08:12:43;;;;;;;;;;;22.00;88.70;;;;;;5021396;28;20351;-64
2021/06/20 08:15:09;;;;;;;;;;;21.90;87.70;;;;;;5022722;28;19909;-64
2021/06/20 08:17:35;;;;;;;;;;;21.90;87.30;;;;;;5021534;28;19928;-63
2021/06/20 08:20:00;;;;;;;;;;;21.90;88.50;;;;;;5018107;28;20096;-64
2021/06/20 08:22:26;;;;;;;;;;;21.80;88.20;;;;;;5018024;28;20068;-63
2021/06/20 08:24:52;;;;;;;;;;;21.70;88.20;;;;;;5022779;28;20332;-63
2021/06/20 08:27:17;;;;;;;;;;;21.70;87.90;;;;;;5020880;28;20418;-63
2021/06/20 08:29:43;;;;;;;;;;;21.80;86.90;;;;;;5022167;28;20333;-64
2021/06/20 08:32:08;;;;;;;;;;;21.80;87.10;;;;;;5022882;28;19954;-63
2021/06/20 08:34:34;;;;;;;;;;;22.00;86.50;;;;;;5022638;28;19913;-64
2021/06/20 08:37:01;;;;;;;;;;;22.10;86.50;;;;;;5022330;28;19917;-64
2021/06/20 08:39:26;;;;;;;;;;;22.00;86.50;;;;;;5020389;28;19928;-64
2021/06/20 08:41:52;;;;;;;;;;;21.80;87.00;;;;;;5020762;28;19980;-63
2021/06/20 08:44:18;;;;;;;;;;;21.60;86.50;;;;;;5020736;28;19916;-62
2021/06/20 08:46:43;;;;;;;;;;;21.60;87.00;;;;;;5023186;28;20004;-63
2021/06/20 08:49:09;;;;;;;;;;;21.70;86.60;;;;;;5021874;28;19974;-64
2021/06/20 08:51:35;;;;;;;;;;;21.70;87.10;;;;;;5019270;28;19917;-63
2021/06/20 08:54:00;;;;;;;;;;;21.90;87.50;;;;;;5018480;28;20031;-63
2021/06/20 08:56:27;;;;;;;;;;;21.60;86.10;;;;;;5022519;28;19944;-63
2021/06/20 08:58:52;;;;;;;;;;;21.70;86.50;;;;;;5019320;28;19979;-63
2021/06/20 09:01:18;;;;;;;;;;;21.70;86.60;;;;;;5023828;28;19956;-64
2021/06/20 09:03:47;;;;;;;;;;;21.60;87.20;;;;;;5020193;28;20512;-63
2021/06/20 09:06:15;;;;;;;;;;;21.60;86.70;;;;;;5021274;28;20257;-63
2021/06/20 09:08:44;;;;;;;;;;;21.60;86.90;;;;;;5020285;28;20127;-64
2021/06/20 09:11:20;;;;;;;;;;;21.70;86.90;;;;;;5021935;28;20014;-63
2021/06/20 09:13:46;;;;;;;;;;;21.90;86.70;;;;;;5021333;28;19913;-63
2021/06/20 09:16:11;;;;;;;;;;;22.00;85.80;;;;;;5021362;28;19986;-64
2021/06/20 09:18:47;;;;;;;;;;;22.20;86.70;;;;;;5021765;28;20259;-63
2021/06/20 09:21:13;;;;;;;;;;;22.30;84.70;;;;;;5019776;28;19961;-64
2021/06/20 09:23:41;;;;;;;;;;;22.50;84.70;;;;;;5022410;28;19919;-63
2021/06/20 09:26:07;;;;;;;;;;;22.80;83.20;;;;;;5020590;28;20171;-64
2021/06/20 09:28:35;;;;;;;;;;;23.00;83.10;;;;;;5022661;28;19958;-64
2021/06/20 09:31:01;;;;;;;;;;;22.80;82.90;;;;;;5019945;28;19921;-64
2021/06/20 09:33:31;;;;;;;;;;;22.80;83.20;;;;;;5023307;28;19909;-63
2021/06/20 09:35:57;;;;;;;;;;;23.10;82.60;;;;;;5021461;28;20327;-63
2021/06/20 09:38:23;;;;;;;;;;;23.00;81.70;;;;;;5021901;28;20082;-64
2021/06/20 09:40:52;;;;;;;;;;;23.30;81.70;;;;;;5022047;28;20074;-63
2021/06/20 09:43:19;;;;;;;;;;;23.30;80.90;;;;;;5020081;28;19943;-64
2021/06/20 09:45:47;;;;;;;;;;;23.60;80.30;;;;;;5020721;28;19925;-64
2021/06/20 09:48:26;;;;;;;;;;;24.00;79.10;;;;;;5021031;28;20029;-64
2021/06/20 09:50:52;;;;;;;;;;;24.40;77.20;;;;;;5022611;28;19914;-63
2021/06/20 09:53:19;;;;;;;;;;;24.50;76.50;;;;;;5019744;28;19921;-64
2021/06/20 09:55:44;;;;;;;;;;;24.70;75.60;;;;;;5020873;28;20383;-64
2021/06/20 09:58:10;;;;;;;;;;;24.40;76.30;;;;;;5020507;28;19964;-64
2021/06/20 10:00:41;;;;;;;;;;;24.80;76.80;;;;;;5021499;28;19922;-65
2021/06/20 10:03:07;;;;;;;;;;;24.80;74.80;;;;;;5021237;28;19961;-63
2021/06/20 10:05:33;;;;;;;;;;;24.90;74.50;;;;;;5023113;28;20023;-64
2021/06/20 10:08:02;;;;;;;;;;;25.50;72.50;;;;;;5021276;28;19925;-64
2021/06/20 10:10:27;;;;;;;;;;;25.20;72.60;;;;;;5022057;28;19909;-64
2021/06/20 10:12:53;;;;;;;;;;;25.40;72.00;;;;;;5020501;28;20356;-64
2021/06/20 10:15:19;;;;;;;;;;;25.20;72.10;;;;;;5021336;28;20264;-64
2021/06/20 10:17:45;;;;;;;;;;;25.20;72.00;;;;;;5020086;28;19921;-64
2021/06/20 10:20:13;;;;;;;;;;;25.40;70.00;;;;;;5018581;28;19939;-64
2021/06/20 10:22:46;;;;;;;;;;;25.20;70.60;;;;;;5015264;28;19917;-64
2021/06/20 10:25:27;;;;;;;;;;;25.30;68.20;;;;;;5021380;28;20378;-65
2021/06/20 10:28:00;;;;;;;;;;;25.00;66.30;;;;;;5019528;28;20340;-64
2021/06/20 10:30:26;;;;;;;;;;;25.00;69.30;;;;;;5020446;28;20019;-63
2021/06/20 10:32:52;;;;;;;;;;;25.80;67.30;;;;;;5020108;28;20016;-64
2021/06/20 10:35:21;;;;;;;;;;;25.60;65.80;;;;;;5022672;28;19914;-63
2021/06/20 10:37:48;;;;;;;;;;;25.50;64.90;;;;;;5015833;28;19954;-64
2021/06/20 10:40:18;;;;;;;;;;;26.00;64.90;;;;;;5025156;28;19932;-64
2021/06/20 10:42:44;;;;;;;;;;;26.10;63.30;;;;;;5023677;28;19913;-64
2021/06/20 10:45:10;;;;;;;;;;;26.20;63.80;;;;;;5023843;28;19917;-64
2021/06/20 10:47:38;;;;;;;;;;;26.50;65.40;;;;;;5023990;28;19936;-65
2021/06/20 10:50:05;;;;;;;;;;;26.20;63.80;;;;;;5025190;28;19913;-63
2021/06/20 10:52:31;;;;;;;;;;;26.40;63.60;;;;;;5020353;28;19917;-64
2021/06/20 10:55:07;;;;;;;;;;;26.50;61.50;;;;;;5022896;28;19925;-64
2021/06/20 10:57:40;;;;;;;;;;;26.80;60.80;;;;;;5022865;28;20457;-65
2021/06/20 11:00:06;;;;;;;;;;;27.30;62.90;;;;;;5025238;28;20260;-64
2021/06/20 11:02:32;;;;;;;;;;;27.20;59.70;;;;;;5023578;28;19914;-64
2021/06/20 11:04:59;;;;;;;;;;;27.30;57.80;;;;;;5024608;28;19924;-64
2021/06/20 11:07:27;;;;;;;;;;;26.90;58.90;;;;;;5023479;28;19989;-64
2021/06/20 11:09:53;;;;;;;;;;;26.70;57.00;;;;;;5024775;28;20147;-64
2021/06/20 11:12:19;;;;;;;;;;;27.20;57.40;;;;;;5022404;28;20459;-64
2021/06/20 11:14:45;;;;;;;;;;;27.30;57.80;;;;;;5024829;28;19920;-65
2021/06/20 11:17:11;;;;;;;;;;;27.10;55.10;;;;;;5020978;28;20295;-64
2021/06/20 11:19:36;;;;;;;;;;;27.30;56.80;;;;;;5024253;28;19975;-64
2021/06/20 11:22:02;;;;;;;;;;;26.90;56.40;;;;;;5018507;28;20392;-64
2021/06/20 11:24:29;;;;;;;;;;;25.70;59.10;;;;;;5023069;28;20006;-64
2021/06/20 11:26:57;;;;;;;;;;;25.70;61.90;;;;;;5022834;28;19929;-64
2021/06/20 11:29:23;;;;;;;;;;;25.60;61.50;;;;;;5023735;28;19909;-64
2021/06/20 11:31:49;;;;;;;;;;;25.80;60.40;;;;;;5018641;28;19971;-64
2021/06/20 11:34:15;;;;;;;;;;;26.70;60.00;;;;;;5022841;28;19917;-63
2021/06/20 11:36:41;;;;;;;;;;;26.90;57.20;;;;;;5023210;28;20239;-64
2021/06/20 11:39:08;;;;;;;;;;;27.50;57.80;;;;;;5024717;28;19909;-65
2021/06/20 11:41:41;;;;;;;;;;;27.70;53.60;;;;;;5016304;28;19967;-64
2021/06/20 11:44:07;;;;;;;;;;;27.50;54.30;;;;;;5019081;28;19974;-65
2021/06/20 11:46:33;;;;;;;;;;;27.70;53.20;;;;;;5022388;28;19913;-63
2021/06/20 11:48:59;;;;;;;;;;;27.50;52.80;;;;;;5023264;28;20276;-65
2021/06/20 11:51:35;;;;;;;;;;;27.40;49.60;;;;;;5023503;28;19943;-64
2021/06/20 11:54:22;;;;;;;;;;;27.70;51.30;;;;;;5017032;28;19917;-64
2021/06/20 11:57:01;;;;;;;;;;;27.60;49.80;;;;;;5019969;28;20748;-64
2021/06/20 11:59:34;;;;;;;;;;;27.60;49.80;;;;;;5023378;28;19944;-65
2021/06/20 12:02:01;;;;;;;;;;;27.60;49.60;;;;;;4996037;28;20399;-64
2021/06/20 12:04:28;;;;;;;;;;;27.00;50.40;;;;;;5015130;28;19936;-64
2021/06/20 12:06:53;;;;;;;;;;;27.40;49.90;;;;;;5017480;28;20009;-64
2021/06/20 12:09:21;;;;;;;;;;;27.60;49.80;;;;;;5020681;28;20008;-64
2021/06/20 12:11:46;;;;;;;;;;;28.30;47.10;;;;;;5030465;28;19950;-63
2021/06/20 12:14:20;;;;;;;;;;;28.50;47.90;;;;;;5014882;28;19962;-65
2021/06/20 12:16:46;;;;;;;;;;;29.00;49.30;;;;;;5012871;28;20222;-65
2021/06/20 12:19:13;;;;;;;;;;;28.50;47.80;;;;;;5009611;28;20517;-63
2021/06/20 12:21:38;;;;;;;;;;;27.90;50.10;;;;;;5016921;28;19982;-64
2021/06/20 12:24:04;;;;;;;;;;;27.30;48.70;;;;;;5011118;28;19913;-64
2021/06/20 12:26:31;;;;;;;;;;;27.50;48.80;;;;;;5018378;28;19953;-64
2021/06/20 12:28:57;;;;;;;;;;;27.30;50.30;;;;;;5014590;28;19963;-64
2021/06/20 12:31:23;;;;;;;;;;;27.50;51.80;;;;;;5019685;28;19975;-64
2021/06/20 12:33:59;;;;;;;;;;;27.00;50.30;;;;;;5012529;28;20368;-64
2021/06/20 12:36:28;;;;;;;;;;;26.70;52.40;;;;;;5013660;28;19994;-64
2021/06/20 12:38:54;;;;;;;;;;;26.60;53.60;;;;;;5012288;28;19909;-64
2021/06/20 12:41:20;;;;;;;;;;;26.30;53.90;;;;;;5018771;28;20398;-64
2021/06/20 12:44:18;;;;;;;;;;;26.00;54.70;;;;;;5007911;28;20057;-64
2021/06/20 12:46:45;;;;;;;;;;;25.90;55.10;;;;;;5044788;28;20379;-62
2021/06/20 12:49:12;;;;;;;;;;;26.50;54.70;;;;;;5019941;28;19917;-64
2021/06/20 12:51:38;;;;;;;;;;;26.50;53.50;;;;;;5016153;28;19917;-65
2021/06/20 12:54:08;;;;;;;;;;;26.40;55.00;;;;;;5015864;28;19921;-63
2021/06/20 12:56:34;;;;;;;;;;;26.30;55.80;;;;;;5018070;28;19964;-63
2021/06/20 12:59:07;;;;;;;;;;;26.30;55.60;;;;;;5017892;28;19960;-64
2021/06/20 13:01:48;;;;;;;;;;;27.40;53.00;;;;;;5018298;28;19916;-64
2021/06/20 13:04:14;;;;;;;;;;;28.20;50.00;;;;;;5022472;28;20020;-65
2021/06/20 13:06:40;;;;;;;;;;;28.70;47.10;;;;;;5017384;28;20022;-63
2021/06/20 13:09:06;;;;;;;;;;;29.50;46.40;;;;;;5016963;28;20012;-63
2021/06/20 13:11:32;;;;;;;;;;;29.50;46.00;;;;;;5012209;28;22136;-63
2021/06/20 13:14:15;;;;;;;;;;;29.60;48.70;;;;;;5016490;28;19924;-65
2021/06/20 13:16:41;;;;;;;;;;;28.70;47.60;;;;;;5013384;28;19928;-64
2021/06/20 13:19:08;;;;;;;;;;;28.00;50.10;;;;;;5014262;28;20000;-63
2021/06/20 13:21:34;;;;;;;;;;;27.40;51.80;;;;;;5018541;28;20304;-64
2021/06/20 13:23:59;;;;;;;;;;;27.10;53.30;;;;;;5012528;28;19953;-64
2021/06/20 13:26:25;;;;;;;;;;;26.80;54.00;;;;;;5015454;28;19924;-64
2021/06/20 13:28:50;;;;;;;;;;;26.80;54.60;;;;;;5006710;28;19921;-63
2021/06/20 13:31:16;;;;;;;;;;;27.50;53.10;;;;;;5013545;28;20384;-64
2021/06/20 13:33:41;;;;;;;;;;;27.10;52.60;;;;;;5009081;28;20000;-64
2021/06/20 13:36:07;;;;;;;;;;;27.30;53.20;;;;;;5017048;28;19921;-63
2021/06/20 13:38:32;;;;;;;;;;;28.10;52.00;;;;;;5017362;28;20475;-64
2021/06/20 13:40:58;;;;;;;;;;;28.50;52.40;;;;;;5017019;28;19927;-64
2021/06/20 13:43:23;;;;;;;;;;;28.50;50.20;;;;;;5008093;28;20362;-64
2021/06/20 13:45:51;;;;;;;;;;;29.20;49.10;;;;;;5013474;28;19925;-64
2021/06/20 13:48:16;;;;;;;;;;;29.70;45.90;;;;;;5015125;28;20337;-64
2021/06/20 13:50:42;;;;;;;;;;;29.90;46.20;;;;;;5012443;28;19920;-63
2021/06/20 13:53:07;;;;;;;;;;;29.50;47.30;;;;;;5015027;28;20364;-64
2021/06/20 13:55:33;;;;;;;;;;;29.40;47.40;;;;;;5006098;28;19995;-63
2021/06/20 13:57:59;;;;;;;;;;;29.30;45.60;;;;;;5012431;28;19913;-65
2021/06/20 14:00:25;;;;;;;;;;;28.40;49.00;;;;;;5011788;28;19917;-64
2021/06/20 14:02:50;;;;;;;;;;;28.40;47.00;;;;;;5010687;28;20062;-64
2021/06/20 14:05:16;;;;;;;;;;;29.90;46.00;;;;;;5010921;28;19917;-64
2021/06/20 14:07:42;;;;;;;;;;;30.30;44.70;;;;;;5007666;28;19995;-63
2021/06/20 14:10:08;;;;;;;;;;;30.20;44.40;;;;;;5013127;28;20012;-64
2021/06/20 14:12:35;;;;;;;;;;;30.40;43.00;;;;;;5017291;28;20327;-64
2021/06/20 14:15:00;;;;;;;;;;;31.00;41.90;;;;;;5016198;28;20329;-64